createdAt,value
2022-08-22T00:01:15.227Z,60.99
2022-08-22T00:03:10.196Z,60.05
2022-08-22T00:03:10.897Z,60.22
2022-08-22T00:03:56.306Z,61.00
2022-08-22T00:06:50.975Z,61.36
2022-08-22T00:09:29.504Z,61.17
2022-08-22T00:12:14.206Z,60.71
2022-08-22T00:14:52.857Z,61.03
2022-08-22T00:17:31.701Z,61.53
2022-08-22T00:20:08.970Z,61.06
2022-08-22T00:23:11.935Z,61.97
2022-08-22T00:25:38.572Z,61.12
2022-08-22T00:28:15.012Z,61.47
2022-08-22T00:30:49.893Z,61.64
2022-08-22T00:33:41.616Z,62.33
2022-08-22T00:36:23.397Z,61.75
2022-08-22T00:39:11.609Z,61.66
2022-08-22T00:42:13.981Z,62.16
2022-08-22T00:45:08.492Z,62.27
2022-08-22T00:47:36.265Z,61.60
2022-08-22T00:50:26.279Z,62.44
2022-08-22T00:53:11.626Z,63.21
2022-08-22T00:55:59.739Z,63.47
2022-08-22T00:58:51.837Z,62.68
2022-08-22T01:01:30.119Z,62.90
2022-08-22T01:04:16.023Z,62.61
2022-08-22T01:06:54.661Z,63.20
2022-08-22T01:09:42.338Z,63.63
2022-08-22T01:12:15.305Z,63.37
2022-08-22T01:14:52.227Z,62.91
2022-08-22T01:17:48.199Z,63.46
2022-08-22T01:20:42.726Z,63.45
2022-08-22T01:23:43.124Z,62.98
2022-08-22T01:26:44.797Z,62.93
2022-08-22T01:29:42.665Z,64.09
2022-08-22T01:32:31.250Z,64.05
2022-08-22T01:35:00.402Z,64.30
2022-08-22T01:37:51.330Z,63.63
2022-08-22T01:40:36.545Z,64.72
2022-08-22T01:43:22.970Z,64.78
2022-08-22T01:46:21.502Z,64.31
2022-08-22T01:49:05.078Z,63.63
2022-08-22T01:51:51.145Z,64.08
2022-08-22T01:54:30.142Z,64.04
2022-08-22T01:57:07.808Z,64.52
2022-08-22T01:59:42.907Z,64.57
2022-08-22T02:02:16.604Z,64.04
2022-08-22T02:04:43.186Z,65.13
2022-08-22T02:07:15.744Z,66.01
2022-08-22T02:10:00.453Z,67.03
2022-08-22T02:12:42.552Z,68.29
2022-08-22T02:15:18.311Z,68.73
2022-08-22T02:18:21.228Z,68.14
2022-08-22T02:20:47.859Z,69.20
2022-08-22T02:23:23.514Z,70.12
2022-08-22T02:26:04.971Z,69.98
2022-08-22T02:28:56.968Z,70.08
2022-08-22T02:32:00.988Z,70.48
2022-08-22T02:34:46.773Z,69.71
2022-08-22T02:37:21.931Z,70.19
2022-08-22T02:39:52.968Z,69.94
2022-08-22T02:42:28.830Z,69.97
2022-08-22T02:45:04.080Z,69.25
2022-08-22T02:47:41.958Z,68.78
2022-08-22T02:50:21.249Z,67.82
2022-08-22T02:53:05.084Z,67.14
2022-08-22T02:55:51.060Z,67.30
2022-08-22T02:58:27.112Z,66.41
2022-08-22T03:01:03.123Z,66.80
2022-08-22T03:03:36.201Z,66.05
2022-08-22T03:06:07.475Z,67.18
2022-08-22T03:08:38.679Z,66.94
2022-08-22T03:11:32.123Z,67.29
2022-08-22T03:14:16.682Z,66.98
2022-08-22T03:16:55.398Z,67.88
2022-08-22T03:19:24.668Z,67.23
2022-08-22T03:21:56.844Z,67.67
2022-08-22T03:24:35.302Z,68.10
2022-08-22T03:27:12.229Z,68.50
2022-08-22T03:30:12.293Z,67.67
2022-08-22T03:32:53.171Z,67.94
2022-08-22T03:35:45.496Z,67.80
2022-08-22T03:38:31.003Z,68.19
2022-08-22T03:41:12.788Z,68.07
2022-08-22T03:44:00.991Z,67.32
2022-08-22T03:46:43.380Z,68.36
2022-08-22T03:49:59.235Z,68.74
2022-08-22T03:53:10.446Z,68.51
2022-08-22T03:56:07.162Z,69.07
2022-08-22T03:58:39.478Z,68.52
2022-08-22T04:01:08.833Z,68.68
2022-08-22T04:03:54.191Z,68.74
2022-08-22T04:07:32.216Z,68.83
2022-08-22T04:10:02.650Z,68.18
2022-08-22T04:12:53.275Z,67.62
2022-08-22T04:15:25.779Z,68.47
2022-08-22T04:18:11.010Z,68.44
2022-08-22T04:20:49.402Z,69.20
2022-08-22T04:23:38.688Z,70.19
2022-08-22T04:26:15.418Z,69.71
2022-08-22T04:28:51.750Z,70.08
2022-08-22T04:31:27.799Z,69.25
2022-08-22T04:34:00.807Z,68.89
2022-08-22T04:36:42.237Z,68.87
2022-08-22T04:39:18.533Z,69.50
2022-08-22T04:42:00.653Z,69.68
2022-08-22T04:44:42.706Z,71.28
2022-08-22T04:47:32.159Z,71.30
2022-08-22T04:50:20.948Z,73.14
2022-08-22T04:53:18.450Z,72.81
2022-08-22T04:56:31.881Z,72.58
2022-08-22T04:59:03.696Z,72.25
2022-08-22T05:01:56.578Z,71.42
2022-08-22T05:04:45.641Z,70.51
2022-08-22T05:07:17.385Z,70.45
2022-08-22T05:09:55.693Z,69.77
2022-08-22T05:12:32.010Z,69.95
2022-08-22T05:15:05.466Z,69.42
2022-08-22T05:17:34.473Z,69.43
2022-08-22T05:20:08.831Z,69.32
2022-08-22T05:22:40.818Z,67.99
2022-08-22T05:25:11.770Z,67.99
2022-08-22T05:28:13.850Z,67.83
2022-08-22T05:30:46.536Z,67.86
2022-08-22T05:33:26.455Z,66.96
2022-08-22T05:35:59.323Z,67.93
2022-08-22T05:38:32.017Z,67.00
2022-08-22T05:41:07.577Z,67.34
2022-08-22T05:43:38.647Z,66.65
2022-08-22T05:46:09.947Z,67.60
2022-08-22T05:48:44.134Z,66.66
2022-08-22T05:51:21.682Z,67.00
2022-08-22T05:53:54.335Z,67.39
2022-08-22T05:56:34.714Z,67.07
2022-08-22T05:59:31.791Z,66.94
2022-08-22T06:02:20.678Z,67.10
2022-08-22T06:04:59.470Z,66.54
2022-08-22T06:07:32.506Z,67.41
2022-08-22T06:10:05.267Z,68.03
2022-08-22T06:12:40.033Z,66.75
2022-08-22T06:15:48.591Z,67.21
2022-08-22T06:18:24.716Z,66.60
2022-08-22T06:20:54.468Z,67.44
2022-08-22T06:23:42.176Z,66.97
2022-08-22T06:26:20.594Z,65.84
2022-08-22T06:28:54.961Z,66.57
2022-08-22T06:31:47.111Z,66.29
2022-08-22T06:34:17.501Z,65.73
2022-08-22T06:36:48.493Z,65.68
2022-08-22T06:39:25.524Z,65.04
2022-08-22T06:42:14.531Z,64.81
2022-08-22T06:45:08.562Z,65.25
2022-08-22T06:47:43.593Z,64.42
2022-08-22T06:50:22.056Z,65.47
2022-08-22T06:53:05.794Z,64.88
2022-08-22T06:55:33.036Z,64.51
2022-08-22T06:58:04.951Z,64.89
2022-08-22T07:00:34.606Z,63.47
2022-08-22T07:03:26.986Z,62.32
2022-08-22T07:05:55.790Z,62.40
2022-08-22T07:08:24.862Z,61.56
2022-08-22T07:10:57.901Z,62.10
2022-08-22T07:13:26.303Z,61.61
2022-08-22T07:15:56.926Z,60.98
2022-08-22T07:18:27.720Z,61.00
2022-08-22T07:20:57.821Z,61.96
2022-08-22T07:23:33.514Z,60.78
2022-08-22T07:25:59.996Z,60.28
2022-08-22T07:28:51.540Z,60.15
2022-08-22T07:31:40.015Z,59.40
2022-08-22T07:34:32.358Z,60.16
2022-08-22T07:37:06.728Z,60.04
2022-08-22T07:39:53.829Z,59.26
2022-08-22T07:42:35.805Z,58.78
2022-08-22T07:45:09.232Z,59.29
2022-08-22T07:47:57.159Z,57.71
2022-08-22T07:50:28.640Z,56.50
2022-08-22T07:53:04.862Z,55.63
2022-08-22T07:55:31.889Z,55.16
2022-08-22T07:58:07.930Z,55.33
2022-08-22T08:00:41.609Z,54.56
2022-08-22T08:03:09.318Z,54.38
2022-08-22T08:05:38.802Z,54.66
2022-08-22T08:08:15.678Z,54.34
2022-08-22T08:10:42.868Z,53.97
2022-08-22T08:13:19.384Z,53.97
2022-08-22T08:15:46.259Z,53.80
2022-08-22T08:18:21.742Z,53.24
2022-08-22T08:21:00.172Z,53.23
2022-08-22T08:23:31.479Z,53.49
2022-08-22T08:26:07.073Z,52.96
2022-08-22T08:28:41.766Z,52.87
2022-08-22T08:31:27.703Z,52.39
2022-08-22T08:34:03.518Z,51.34
2022-08-22T08:36:37.879Z,51.54
2022-08-22T08:39:16.786Z,51.18
2022-08-22T08:42:02.084Z,51.38
2022-08-22T08:45:06.293Z,50.94
2022-08-22T08:47:54.841Z,49.59
2022-08-22T08:50:43.233Z,49.44
2022-08-22T08:53:21.979Z,49.57
2022-08-22T08:55:59.317Z,48.96
2022-08-22T08:58:54.724Z,47.86
2022-08-22T09:01:48.893Z,46.95
2022-08-22T09:04:52.597Z,46.89
2022-08-22T09:07:47.821Z,46.02
2022-08-22T09:10:44.626Z,44.61
2022-08-22T09:13:17.269Z,44.82
2022-08-22T09:16:04.617Z,44.38
2022-08-22T09:19:14.220Z,44.64
2022-08-22T09:21:53.336Z,43.63
2022-08-22T09:24:45.826Z,43.93
2022-08-22T09:27:21.739Z,42.97
2022-08-22T09:29:59.757Z,42.03
2022-08-22T09:32:54.655Z,41.98
2022-08-22T09:35:46.042Z,41.88
2022-08-22T09:38:48.309Z,41.62
2022-08-22T09:41:57.182Z,43.45
2022-08-22T09:44:51.570Z,43.06
2022-08-22T09:47:27.202Z,42.75
2022-08-22T09:50:17.755Z,41.14
2022-08-22T09:52:56.946Z,40.21
2022-08-22T09:55:35.146Z,41.12
2022-08-22T09:58:12.598Z,40.10
2022-08-22T10:00:55.144Z,38.99
2022-08-22T10:03:43.609Z,39.84
2022-08-22T10:06:20.446Z,39.52
2022-08-22T10:09:02.901Z,39.36
2022-08-22T10:11:54.123Z,38.29
2022-08-22T10:14:28.285Z,38.47
2022-08-22T10:17:07.169Z,38.11
2022-08-22T10:19:43.031Z,38.91
2022-08-22T10:22:30.214Z,37.27
2022-08-22T10:25:45.750Z,36.31
2022-08-22T10:28:31.303Z,36.33
2022-08-22T10:31:18.095Z,36.88
2022-08-22T10:33:57.848Z,36.46
2022-08-22T10:36:59.677Z,36.45
2022-08-22T10:39:33.242Z,36.33
2022-08-22T10:42:24.335Z,36.43
2022-08-22T10:45:23.657Z,36.46
2022-08-22T10:48:08.977Z,35.72
2022-08-22T10:50:47.816Z,33.80
2022-08-22T10:53:34.768Z,34.82
2022-08-22T10:56:10.025Z,34.21
2022-08-22T10:59:01.193Z,34.28
2022-08-22T11:01:42.003Z,34.06
2022-08-22T11:04:28.160Z,35.27
2022-08-22T11:07:14.459Z,34.82
2022-08-22T11:09:55.168Z,35.15
2022-08-22T11:12:37.393Z,35.42
2022-08-22T11:15:28.427Z,35.35
2022-08-22T11:18:43.250Z,35.66
2022-08-22T11:21:30.606Z,34.53
2022-08-22T11:24:03.355Z,34.33
2022-08-22T11:26:51.101Z,33.55
2022-08-22T11:29:38.993Z,33.76
2022-08-22T11:32:32.497Z,34.12
2022-08-22T11:35:24.064Z,35.03
2022-08-22T11:38:13.252Z,33.61
2022-08-22T11:40:59.200Z,33.54
2022-08-22T11:43:45.266Z,32.33
2022-08-22T11:46:19.976Z,31.24
2022-08-22T11:49:28.511Z,32.54
2022-08-22T11:52:11.667Z,33.04
2022-08-22T11:55:16.799Z,32.58
2022-08-22T11:57:46.328Z,31.90
2022-08-22T12:00:26.729Z,33.08
2022-08-22T12:03:09.039Z,32.38
2022-08-22T12:06:00.254Z,30.95
2022-08-22T12:08:29.631Z,31.88
2022-08-22T12:11:03.395Z,31.04
2022-08-22T12:14:03.901Z,31.36
2022-08-22T12:16:47.419Z,29.98
2022-08-22T12:19:34.897Z,30.00
2022-08-22T12:22:33.311Z,29.75
2022-08-22T12:25:27.457Z,31.00
2022-08-22T12:28:14.326Z,31.14
2022-08-22T12:30:54.633Z,30.20
2022-08-22T12:33:54.963Z,30.53
2022-08-22T12:36:44.093Z,31.42
2022-08-22T12:39:48.294Z,30.63
2022-08-22T12:42:26.807Z,30.75
2022-08-22T12:45:12.049Z,31.24
2022-08-22T12:48:03.106Z,32.19
2022-08-22T12:50:47.830Z,31.36
2022-08-22T12:53:36.350Z,30.81
2022-08-22T12:56:12.012Z,29.68
2022-08-22T12:59:06.695Z,29.46
2022-08-22T13:01:43.582Z,30.18
2022-08-22T13:04:33.568Z,30.05
2022-08-22T13:07:23.225Z,29.69
2022-08-22T13:09:59.185Z,29.45
2022-08-22T13:12:45.250Z,29.31
2022-08-22T13:15:25.911Z,29.78
2022-08-22T13:17:53.469Z,29.03
2022-08-22T13:20:31.634Z,29.62
2022-08-22T13:23:01.318Z,28.73
2022-08-22T13:25:30.129Z,29.36
2022-08-22T13:28:01.607Z,29.64
2022-08-22T13:30:38.522Z,29.08
2022-08-22T13:33:13.606Z,30.13
2022-08-22T13:35:52.442Z,28.89
2022-08-22T13:38:46.599Z,29.14
2022-08-22T13:41:21.741Z,29.44
2022-08-22T13:44:13.705Z,28.74
2022-08-22T13:47:10.873Z,29.58
2022-08-22T13:49:35.137Z,28.66
2022-08-22T13:52:32.451Z,27.92
2022-08-22T13:55:34.708Z,28.77
2022-08-22T13:58:18.741Z,26.64
2022-08-22T14:01:14.706Z,26.07
2022-08-22T14:03:50.214Z,26.53
2022-08-22T14:06:41.519Z,25.59
2022-08-22T14:09:36.678Z,24.75
2022-08-22T14:12:06.621Z,24.48
2022-08-22T14:14:42.518Z,24.90
2022-08-22T14:17:19.046Z,25.00
2022-08-22T14:19:59.294Z,25.43
2022-08-22T14:22:32.471Z,27.33
2022-08-22T14:25:09.441Z,27.26
2022-08-22T14:27:53.952Z,27.70
2022-08-22T14:30:26.425Z,27.83
2022-08-22T14:32:58.983Z,26.27
2022-08-22T14:35:40.967Z,27.49
2022-08-22T14:38:27.202Z,27.54
2022-08-22T14:40:58.545Z,26.72
2022-08-22T14:43:29.133Z,27.65
2022-08-22T14:46:02.405Z,26.22
2022-08-22T14:48:39.277Z,25.53
2022-08-22T14:51:21.443Z,25.90
2022-08-22T14:53:50.080Z,25.87
2022-08-22T14:56:22.203Z,26.66
2022-08-22T14:59:08.873Z,27.45
2022-08-22T15:02:00.149Z,26.72
2022-08-22T15:04:36.551Z,27.23
2022-08-22T15:07:05.884Z,27.34
2022-08-22T15:09:34.185Z,27.26
2022-08-22T15:12:03.752Z,27.35
2022-08-22T15:14:51.993Z,26.95
2022-08-22T15:17:44.098Z,27.42
2022-08-22T15:20:38.354Z,27.39
2022-08-22T15:23:19.991Z,27.35
2022-08-22T15:25:58.659Z,26.14
2022-08-22T15:28:26.150Z,26.96
2022-08-22T15:31:06.171Z,26.21
2022-08-22T15:33:45.421Z,26.14
2022-08-22T15:36:17.155Z,26.42
2022-08-22T15:38:48.114Z,26.91
2022-08-22T15:41:36.399Z,25.74
2022-08-22T15:44:18.285Z,26.23
2022-08-22T15:46:57.755Z,25.77
2022-08-22T15:49:30.706Z,25.35
2022-08-22T15:52:00.889Z,27.17
2022-08-22T15:54:46.869Z,27.60
2022-08-22T15:57:22.631Z,27.44
2022-08-22T15:59:56.235Z,28.90
2022-08-22T16:02:36.636Z,29.69
2022-08-22T16:05:09.410Z,29.71
2022-08-22T16:07:41.905Z,30.01
2022-08-22T16:10:20.479Z,29.04
2022-08-22T16:13:10.498Z,29.07
2022-08-22T16:15:48.096Z,28.53
2022-08-22T16:18:39.505Z,27.98
2022-08-22T16:21:37.971Z,28.75
2022-08-22T16:24:04.634Z,29.89
2022-08-22T16:26:31.285Z,29.72
2022-08-22T16:29:00.521Z,30.35
2022-08-22T16:31:29.890Z,30.64
2022-08-22T16:34:18.396Z,31.35
2022-08-22T16:36:54.552Z,31.57
2022-08-22T16:39:24.192Z,32.07
2022-08-22T16:42:15.981Z,32.67
2022-08-22T16:44:47.002Z,32.86
2022-08-22T16:47:23.699Z,32.84
2022-08-22T16:49:50.321Z,33.30
2022-08-22T16:52:26.092Z,33.42
2022-08-22T16:54:55.878Z,34.05
2022-08-22T16:57:32.632Z,34.39
2022-08-22T17:00:29.937Z,34.69
2022-08-22T17:03:34.800Z,35.16
2022-08-22T17:06:17.478Z,34.87
2022-08-22T17:09:21.794Z,34.97
2022-08-22T17:12:02.638Z,35.13
2022-08-22T17:14:54.715Z,34.94
2022-08-22T17:17:39.918Z,34.65
2022-08-22T17:20:34.162Z,34.38
2022-08-22T17:23:13.241Z,34.11
2022-08-22T17:26:04.969Z,33.76
2022-08-22T17:28:49.470Z,33.66
2022-08-22T17:31:16.215Z,33.94
2022-08-22T17:34:02.266Z,34.14
2022-08-22T17:36:41.229Z,34.24
2022-08-22T17:39:22.715Z,34.47
2022-08-22T17:42:21.133Z,35.09
2022-08-22T17:45:13.768Z,35.18
2022-08-22T17:48:06.950Z,35.93
2022-08-22T17:50:45.335Z,35.78
2022-08-22T17:53:27.655Z,36.17
2022-08-22T17:56:09.374Z,36.64
2022-08-22T17:58:45.586Z,36.57
2022-08-22T18:01:35.969Z,36.62
2022-08-22T18:04:06.677Z,37.14
2022-08-22T18:06:37.263Z,38.05
2022-08-22T18:09:18.687Z,40.02
2022-08-22T18:11:58.876Z,40.42
2022-08-22T18:14:55.813Z,41.16
2022-08-22T18:17:35.566Z,41.74
2022-08-22T18:20:37.782Z,42.15
2022-08-22T18:23:39.020Z,42.63
2022-08-22T18:26:14.351Z,43.57
2022-08-22T18:28:51.181Z,43.29
2022-08-22T18:31:44.042Z,44.04
2022-08-22T18:34:27.990Z,44.37
2022-08-22T18:37:14.933Z,44.85
2022-08-22T18:39:46.904Z,45.01
2022-08-22T18:42:36.876Z,45.86
2022-08-22T18:45:04.037Z,45.90
2022-08-22T18:47:34.762Z,47.09
2022-08-22T18:50:32.782Z,47.05
2022-08-22T18:53:00.597Z,47.63
2022-08-22T18:55:56.258Z,47.45
2022-08-22T18:58:45.739Z,48.15
2022-08-22T19:01:45.976Z,48.54
2022-08-22T19:04:28.052Z,48.94
2022-08-22T19:07:29.879Z,48.96
2022-08-22T19:10:23.998Z,49.31
2022-08-22T19:13:03.109Z,49.31
2022-08-22T19:15:35.697Z,49.88
2022-08-22T19:18:20.405Z,50.25
2022-08-22T19:21:37.840Z,50.12
2022-08-22T19:24:27.777Z,50.33
2022-08-22T19:27:16.129Z,50.58
2022-08-22T19:29:42.722Z,51.33
2022-08-22T19:32:31.087Z,51.33
2022-08-22T19:35:37.294Z,51.22
2022-08-22T19:38:06.845Z,51.73
2022-08-22T19:40:45.611Z,52.06
2022-08-22T19:43:31.693Z,51.79
2022-08-22T19:46:00.394Z,52.25
2022-08-22T19:48:51.882Z,52.49
2022-08-22T19:51:21.483Z,52.80
2022-08-22T19:54:20.365Z,52.81
2022-08-22T19:57:10.028Z,53.34
2022-08-22T20:00:04.023Z,53.41
2022-08-22T20:02:51.825Z,53.33
2022-08-22T20:05:18.459Z,53.40
2022-08-22T20:08:18.117Z,54.25
2022-08-22T20:10:47.704Z,54.44
2022-08-22T20:13:24.347Z,55.03
2022-08-22T20:16:29.053Z,54.59
2022-08-22T20:19:08.951Z,54.67
2022-08-22T20:22:00.383Z,54.88
2022-08-22T20:24:27.308Z,55.37
2022-08-22T20:27:13.315Z,55.05
2022-08-22T20:29:47.172Z,55.68
2022-08-22T20:32:16.630Z,55.31
2022-08-22T20:34:45.070Z,55.39
2022-08-22T20:37:32.483Z,55.81
2022-08-22T20:40:56.774Z,55.87
2022-08-22T20:43:39.546Z,55.59
2022-08-22T20:46:24.699Z,56.21
2022-08-22T20:48:54.430Z,56.82
2022-08-22T20:51:25.923Z,56.50
2022-08-22T20:53:52.500Z,57.01
2022-08-22T20:56:38.509Z,56.52
2022-08-22T20:59:23.976Z,56.88
2022-08-22T21:01:57.339Z,56.67
2022-08-22T21:04:30.067Z,56.77
2022-08-22T21:07:02.682Z,56.43
2022-08-22T21:09:48.374Z,56.93
2022-08-22T21:12:15.163Z,57.10
2022-08-22T21:14:46.396Z,56.82
2022-08-22T21:17:34.198Z,56.74
2022-08-22T21:20:21.906Z,57.39
2022-08-22T21:22:49.054Z,56.99
2022-08-22T21:25:15.963Z,57.10
2022-08-22T21:27:47.946Z,57.02
2022-08-22T21:30:25.568Z,57.50
2022-08-22T21:32:55.958Z,57.44
2022-08-22T21:35:29.863Z,58.17
2022-08-22T21:37:57.194Z,57.55
2022-08-22T21:40:34.266Z,57.52
2022-08-22T21:43:28.561Z,57.55
2022-08-22T21:45:55.363Z,57.84
2022-08-22T21:48:45.622Z,58.07
2022-08-22T21:51:28.508Z,58.00
2022-08-22T21:54:27.898Z,57.81
2022-08-22T21:57:16.505Z,58.00
2022-08-22T21:59:59.661Z,57.99
2022-08-22T22:02:29.695Z,58.82
2022-08-22T22:04:58.086Z,58.89
2022-08-22T22:07:25.518Z,58.58
2022-08-22T22:09:54.493Z,58.62
2022-08-22T22:12:22.633Z,58.64
2022-08-22T22:14:50.075Z,58.30
2022-08-22T22:17:19.119Z,58.46
2022-08-22T22:19:46.404Z,58.59
2022-08-22T22:22:13.558Z,58.76
2022-08-22T22:24:40.267Z,58.72
2022-08-22T22:27:07.698Z,58.82
2022-08-22T22:29:35.733Z,58.40
2022-08-22T22:32:03.510Z,58.90
2022-08-22T22:34:30.142Z,59.04
2022-08-22T22:36:56.889Z,59.17
2022-08-22T22:39:23.492Z,58.69
2022-08-22T22:41:50.240Z,59.36
2022-08-22T22:44:17.373Z,59.24
2022-08-22T22:46:48.202Z,59.51
2022-08-22T22:49:14.794Z,59.29
2022-08-22T22:51:41.402Z,58.86
2022-08-22T22:54:08.066Z,58.23
2022-08-22T22:56:38.061Z,58.19
2022-08-22T22:59:13.409Z,57.55
2022-08-22T23:02:03.431Z,57.63
2022-08-22T23:04:31.529Z,58.13
2022-08-22T23:06:58.223Z,58.15
2022-08-22T23:09:38.092Z,57.73
2022-08-22T23:12:06.421Z,57.54
2022-08-22T23:14:33.933Z,58.22
2022-08-22T23:17:01.260Z,58.70
2022-08-22T23:19:30.336Z,58.80
2022-08-22T23:21:58.636Z,58.93
2022-08-22T23:24:26.944Z,58.70
2022-08-22T23:26:53.982Z,58.69
2022-08-22T23:29:20.581Z,59.13
2022-08-22T23:31:51.762Z,59.65
2022-08-22T23:34:22.960Z,59.82
2022-08-22T23:36:52.337Z,59.58
2022-08-22T23:39:21.073Z,60.12
2022-08-22T23:41:48.276Z,59.46
2022-08-22T23:44:21.239Z,60.00
2022-08-22T23:46:47.846Z,59.79
2022-08-22T23:49:15.657Z,59.40
2022-08-22T23:51:43.849Z,60.35
2022-08-22T23:54:10.598Z,59.88
2022-08-22T23:56:44.520Z,59.80
2022-08-22T23:59:14.607Z,60.30
